Terminal Aerodrome Forecast
Issued by NWS

Home | Current Version | Previous Version | Text Only | Print | Product List | Glossary On
Versions: 1 2 3 4 5 6 7 8 9 10 11 12 13 14
000
FTUS45 KABQ 051737
TAFAEG
TAF
KAEG 051737Z 0518/0618 22006KT P6SM FEW070 SCT150
     FM052100 25010KT P6SM VCTS SCT060CB BKN130
      TEMPO 0521/0601 VRB15G25KT 5SM TSRA BKN050CB
     FM060200 26009KT P6SM -SHRA BKN050 OVC100
     FM060700 VRB05KT P6SM BKN090=

USA.gov is the U.S. government's official web portal to all federal, state and local government web resources and services.